createdAt,value
2019-03-21T00:00:26.250Z,4.00
2019-03-21T00:01:26.259Z,4.00
2019-03-21T00:02:26.282Z,4.00
2019-03-21T00:03:26.291Z,4.00
2019-03-21T00:04:26.314Z,4.00
2019-03-21T00:05:26.338Z,4.00
2019-03-21T00:06:26.347Z,4.00
2019-03-21T00:07:26.365Z,4.00
2019-03-21T00:08:26.385Z,4.00
2019-03-21T00:09:26.403Z,4.00
2019-03-21T00:10:26.423Z,4.00
2019-03-21T00:11:26.438Z,4.00
2019-03-21T00:12:26.456Z,4.00
2019-03-21T00:13:26.476Z,4.00
2019-03-21T00:14:26.500Z,4.00
2019-03-21T00:15:26.510Z,4.00
2019-03-21T00:16:26.533Z,4.00
2019-03-21T00:17:26.552Z,4.00
2019-03-21T00:18:26.563Z,4.00
2019-03-21T00:19:26.589Z,4.00
2019-03-21T00:20:26.605Z,4.00
2019-03-21T00:21:26.621Z,4.00
2019-03-21T00:22:26.639Z,4.00
2019-03-21T00:23:26.656Z,4.00
2019-03-21T00:24:26.675Z,4.00
2019-03-21T00:25:26.693Z,4.00
2019-03-21T00:26:26.713Z,4.00
2019-03-21T00:27:26.726Z,4.00
2019-03-21T00:28:26.750Z,4.00
2019-03-21T00:29:26.770Z,4.00
2019-03-21T00:30:26.780Z,4.00
2019-03-21T00:31:26.800Z,4.00
2019-03-21T00:32:26.816Z,4.00
2019-03-21T00:33:26.836Z,4.00
2019-03-21T00:34:26.861Z,4.00
2019-03-21T00:35:26.869Z,4.00
2019-03-21T00:36:26.890Z,4.00
2019-03-21T00:37:26.910Z,4.00
2019-03-21T00:38:26.924Z,4.00
2019-03-21T00:39:32.714Z,4.00
2019-03-21T00:40:26.968Z,4.00
2019-03-21T00:41:26.980Z,4.00
2019-03-21T00:42:26.998Z,4.00
2019-03-21T00:43:27.013Z,4.00
2019-03-21T00:44:27.035Z,4.00
2019-03-21T00:45:27.050Z,4.00
2019-03-21T00:46:27.070Z,4.00
2019-03-21T00:47:27.089Z,4.00
2019-03-21T00:48:27.103Z,4.00
2019-03-21T00:49:27.124Z,4.00
2019-03-21T00:50:27.143Z,4.00
2019-03-21T00:51:27.165Z,4.00
2019-03-21T00:52:27.178Z,4.00
2019-03-21T00:53:27.196Z,4.00
2019-03-21T00:54:27.212Z,4.00
2019-03-21T00:55:27.230Z,4.00
2019-03-21T00:56:27.257Z,4.00
2019-03-21T00:57:27.269Z,4.00
2019-03-21T00:58:27.286Z,4.00
2019-03-21T00:59:27.302Z,4.00
2019-03-21T01:00:27.327Z,4.00
2019-03-21T01:01:27.336Z,4.00
2019-03-21T01:02:27.363Z,4.00
2019-03-21T01:03:27.377Z,4.00
2019-03-21T01:04:27.394Z,4.00
2019-03-21T01:05:27.411Z,4.00
2019-03-21T01:06:27.428Z,4.00
2019-03-21T01:07:27.450Z,4.00
2019-03-21T01:08:27.462Z,4.00
2019-03-21T01:09:27.489Z,4.00
2019-03-21T01:10:27.500Z,4.00
2019-03-21T01:11:27.522Z,4.00
2019-03-21T01:12:27.538Z,4.00
2019-03-21T01:13:27.559Z,4.00
2019-03-21T01:14:30.035Z,4.00
2019-03-21T01:15:27.594Z,4.00
2019-03-21T01:16:27.607Z,4.00
2019-03-21T01:17:27.624Z,4.00
2019-03-21T01:18:27.643Z,4.00
2019-03-21T01:19:27.660Z,4.00
2019-03-21T01:20:27.681Z,4.00
2019-03-21T01:21:27.699Z,4.00
2019-03-21T01:22:27.723Z,4.00
2019-03-21T01:23:28.082Z,4.00
2019-03-21T01:24:27.751Z,4.00
2019-03-21T01:25:27.769Z,4.00
2019-03-21T01:26:27.788Z,4.00
2019-03-21T01:27:27.806Z,4.00
2019-03-21T01:28:27.835Z,4.00
2019-03-21T01:29:27.840Z,4.00
2019-03-21T01:30:27.861Z,4.00
2019-03-21T01:31:27.876Z,4.00
2019-03-21T01:32:27.895Z,4.00
2019-03-21T01:33:27.911Z,4.00
2019-03-21T01:34:27.933Z,4.00
2019-03-21T01:35:27.948Z,4.00
2019-03-21T01:36:27.967Z,4.00
2019-03-21T01:37:27.988Z,4.00
2019-03-21T01:38:28.002Z,4.00
2019-03-21T01:39:28.019Z,4.00
2019-03-21T01:40:28.039Z,4.00
2019-03-21T01:41:28.054Z,4.00
2019-03-21T01:42:28.072Z,4.00
2019-03-21T01:43:28.097Z,4.00
2019-03-21T01:44:28.110Z,4.00
2019-03-21T01:45:28.125Z,4.00
2019-03-21T01:46:28.144Z,4.00
2019-03-21T01:47:28.163Z,4.00
2019-03-21T01:48:28.188Z,4.00
2019-03-21T01:49:28.199Z,4.00
2019-03-21T01:50:28.217Z,4.00
2019-03-21T01:51:28.234Z,4.00
2019-03-21T01:52:28.256Z,4.00
2019-03-21T01:53:28.271Z,4.00
2019-03-21T01:54:28.287Z,4.00
2019-03-21T01:55:28.310Z,4.00
2019-03-21T01:56:28.331Z,4.00
2019-03-21T01:57:28.340Z,4.00
2019-03-21T01:58:28.358Z,4.00
2019-03-21T01:59:28.382Z,4.00
2019-03-21T02:00:28.394Z,4.00
2019-03-21T02:01:28.420Z,4.00
2019-03-21T02:02:28.430Z,4.00
2019-03-21T02:03:28.453Z,4.00
2019-03-21T02:04:28.465Z,4.00
2019-03-21T02:05:28.491Z,4.00
2019-03-21T02:06:28.501Z,4.00
2019-03-21T02:07:28.523Z,4.00
2019-03-21T02:08:28.539Z,4.00
2019-03-21T02:09:28.559Z,4.00
2019-03-21T02:10:28.577Z,4.00
2019-03-21T02:11:28.591Z,4.00
2019-03-21T02:12:28.610Z,4.00
2019-03-21T02:13:28.630Z,4.00
2019-03-21T02:14:28.648Z,4.00
2019-03-21T02:15:28.670Z,4.00
2019-03-21T02:16:28.680Z,4.00
2019-03-21T02:17:28.700Z,4.00
2019-03-21T02:18:28.720Z,4.00
2019-03-21T02:19:28.741Z,4.00
2019-03-21T02:20:28.752Z,4.00
2019-03-21T02:21:28.771Z,4.00
2019-03-21T02:22:28.789Z,4.00
2019-03-21T02:23:28.808Z,4.00
2019-03-21T02:24:28.822Z,4.00
2019-03-21T02:25:28.840Z,4.00
2019-03-21T02:26:28.867Z,4.00
2019-03-21T02:27:28.878Z,4.00
2019-03-21T02:28:28.896Z,4.00
2019-03-21T02:29:28.918Z,4.00
2019-03-21T02:30:28.930Z,4.00
2019-03-21T02:31:28.953Z,4.00
2019-03-21T02:32:28.966Z,4.00
2019-03-21T02:33:28.987Z,4.00
2019-03-21T02:34:29.004Z,4.00
2019-03-21T02:35:31.056Z,4.00
2019-03-21T02:36:29.036Z,4.00
2019-03-21T02:37:29.057Z,4.00
2019-03-21T02:38:29.075Z,4.00
2019-03-21T02:39:29.098Z,4.00
2019-03-21T02:40:29.109Z,4.00
2019-03-21T02:41:29.137Z,4.00
2019-03-21T02:42:29.147Z,4.00
2019-03-21T02:43:29.163Z,4.00
2019-03-21T02:44:30.248Z,4.00
2019-03-21T02:45:29.199Z,4.00
2019-03-21T02:46:29.218Z,4.00
2019-03-21T02:47:29.233Z,4.00
2019-03-21T02:48:29.261Z,4.00
2019-03-21T02:49:29.271Z,4.00
2019-03-21T02:50:29.288Z,4.00
2019-03-21T02:51:29.304Z,4.00
2019-03-21T02:52:29.324Z,4.00
2019-03-21T02:53:29.340Z,4.00
2019-03-21T02:54:29.360Z,4.00
2019-03-21T02:55:29.374Z,4.00
2019-03-21T02:56:29.398Z,4.00
2019-03-21T02:57:29.410Z,4.00
2019-03-21T02:58:29.446Z,4.00
2019-03-21T02:59:29.465Z,4.00
2019-03-21T03:00:29.464Z,4.00
2019-03-21T03:01:29.489Z,4.00
2019-03-21T03:02:29.502Z,4.00
2019-03-21T03:03:29.520Z,4.00
2019-03-21T03:04:29.536Z,4.00
2019-03-21T03:05:29.557Z,4.00
2019-03-21T03:06:29.584Z,4.00
2019-03-21T03:07:29.586Z,4.00
2019-03-21T03:08:29.613Z,4.00
2019-03-21T03:09:29.624Z,4.00
2019-03-21T03:10:29.647Z,4.00
2019-03-21T03:11:29.658Z,4.00
2019-03-21T03:12:29.679Z,4.00
2019-03-21T03:13:29.703Z,4.00
2019-03-21T03:14:29.713Z,4.00
2019-03-21T03:15:29.733Z,4.00
2019-03-21T03:16:29.754Z,4.00
2019-03-21T03:17:29.775Z,4.00
2019-03-21T03:18:29.783Z,4.00
2019-03-21T03:19:29.802Z,4.00
2019-03-21T03:20:29.825Z,4.00
2019-03-21T03:21:29.837Z,4.00
2019-03-21T03:22:30.017Z,4.00
2019-03-21T03:23:29.871Z,4.00
2019-03-21T03:24:29.898Z,4.00
2019-03-21T03:25:29.910Z,4.00
2019-03-21T03:26:29.927Z,4.00
2019-03-21T03:27:29.946Z,4.00
2019-03-21T03:28:29.959Z,4.00
2019-03-21T03:29:29.976Z,4.00
2019-03-21T03:30:29.995Z,4.00
2019-03-21T03:31:30.034Z,4.00
2019-03-21T03:32:30.031Z,4.00
2019-03-21T03:33:30.062Z,4.00
2019-03-21T03:34:30.072Z,4.00
2019-03-21T03:35:30.085Z,4.00
2019-03-21T03:36:30.105Z,4.00
2019-03-21T03:37:30.127Z,4.00
2019-03-21T03:38:30.144Z,4.00
2019-03-21T03:39:30.156Z,4.00
2019-03-21T03:40:30.177Z,4.00
2019-03-21T03:41:30.201Z,4.00
2019-03-21T03:42:30.211Z,4.00
2019-03-21T03:43:30.231Z,4.00
2019-03-21T03:44:30.246Z,4.00
2019-03-21T03:45:37.363Z,4.00
2019-03-21T03:46:30.282Z,4.00
2019-03-21T03:47:30.300Z,4.00
2019-03-21T03:48:30.321Z,4.00
2019-03-21T03:49:30.342Z,4.00
2019-03-21T03:50:30.355Z,4.00
2019-03-21T03:51:30.377Z,4.00
2019-03-21T03:52:30.396Z,4.00
2019-03-21T03:53:30.414Z,4.00
2019-03-21T03:54:30.673Z,4.00
2019-03-21T03:55:30.449Z,4.00
2019-03-21T03:56:30.456Z,4.00
2019-03-21T03:57:30.478Z,4.00
2019-03-21T03:58:30.497Z,4.00
2019-03-21T03:59:30.513Z,4.00
2019-03-21T04:00:30.534Z,4.00
2019-03-21T04:01:30.546Z,4.00
2019-03-21T04:02:30.564Z,4.00
2019-03-21T04:03:30.587Z,4.00
2019-03-21T04:04:30.600Z,4.00
2019-03-21T04:05:30.619Z,4.00
2019-03-21T04:06:30.643Z,4.00
2019-03-21T04:07:30.655Z,4.00
2019-03-21T04:08:30.670Z,4.00
2019-03-21T04:09:30.695Z,4.00
2019-03-21T04:10:30.710Z,4.00
2019-03-21T04:11:30.725Z,4.00
2019-03-21T04:12:30.743Z,4.00
2019-03-21T04:13:30.758Z,4.00
2019-03-21T04:14:30.778Z,4.00
2019-03-21T04:15:30.799Z,4.00
2019-03-21T04:16:30.817Z,4.00
2019-03-21T04:17:30.835Z,4.00
2019-03-21T04:18:30.853Z,4.00
2019-03-21T04:19:30.866Z,4.00
2019-03-21T04:20:30.883Z,4.00
2019-03-21T04:21:30.903Z,4.00
2019-03-21T04:22:30.921Z,4.00
2019-03-21T04:23:30.936Z,4.00
2019-03-21T04:24:30.955Z,4.00
2019-03-21T04:25:30.974Z,4.00
2019-03-21T04:26:31.005Z,4.00
2019-03-21T04:27:31.006Z,4.00
2019-03-21T04:28:31.027Z,4.00
2019-03-21T04:29:31.044Z,4.00
2019-03-21T04:30:31.059Z,4.00
2019-03-21T04:31:31.079Z,4.00
2019-03-21T04:32:31.109Z,4.00
2019-03-21T04:33:31.113Z,4.00
2019-03-21T04:34:31.386Z,4.00
2019-03-21T04:35:31.151Z,4.00
2019-03-21T04:36:31.166Z,4.00
2019-03-21T04:37:31.186Z,4.00
2019-03-21T04:38:31.207Z,4.00
2019-03-21T04:39:31.219Z,4.00
2019-03-21T04:40:31.236Z,4.00
2019-03-21T04:41:31.277Z,4.00
2019-03-21T04:42:31.274Z,4.00
2019-03-21T04:43:31.289Z,4.00
2019-03-21T04:44:31.309Z,4.00
2019-03-21T04:45:31.328Z,4.00
2019-03-21T04:46:31.341Z,4.00
2019-03-21T04:47:31.361Z,4.00
2019-03-21T04:48:31.385Z,4.00
2019-03-21T04:49:31.402Z,4.00
2019-03-21T04:50:31.415Z,4.00
2019-03-21T04:51:31.435Z,4.00
2019-03-21T04:52:31.448Z,4.00
2019-03-21T04:53:31.465Z,4.00
2019-03-21T04:54:31.483Z,4.00
2019-03-21T04:55:31.501Z,4.00
2019-03-21T04:56:31.518Z,4.00
2019-03-21T04:57:31.539Z,4.00
2019-03-21T04:58:31.557Z,4.00
2019-03-21T04:59:31.572Z,4.00
2019-03-21T05:00:31.588Z,4.00
2019-03-21T05:01:31.607Z,4.00
2019-03-21T05:02:31.628Z,4.00
2019-03-21T05:03:31.643Z,4.00
2019-03-21T05:04:31.659Z,4.00
2019-03-21T05:05:31.681Z,4.00
2019-03-21T05:06:32.918Z,4.00
2019-03-21T05:07:31.721Z,4.00
2019-03-21T05:08:31.734Z,4.00
2019-03-21T05:09:31.747Z,4.00
2019-03-21T05:10:31.764Z,8.00
2019-03-21T05:11:31.781Z,8.00
2019-03-21T05:12:31.799Z,4.00
2019-03-21T05:13:31.820Z,8.00
2019-03-21T05:14:31.837Z,8.00
2019-03-21T05:15:31.853Z,4.00
2019-03-21T05:16:31.869Z,8.00
2019-03-21T05:17:31.890Z,8.00
2019-03-21T05:18:31.906Z,8.00
2019-03-21T05:19:31.931Z,12.00
2019-03-21T05:20:31.940Z,12.00
2019-03-21T05:21:31.963Z,16.00
2019-03-21T05:22:31.983Z,12.00
2019-03-21T05:23:31.990Z,16.00
2019-03-21T05:24:32.018Z,16.00
2019-03-21T05:25:32.025Z,20.00
2019-03-21T05:26:32.047Z,24.00
2019-03-21T05:27:32.069Z,28.00
2019-03-21T05:28:32.082Z,32.00
2019-03-21T05:29:32.103Z,32.00
2019-03-21T05:30:32.117Z,36.00
2019-03-21T05:31:32.131Z,36.00
2019-03-21T05:32:32.153Z,40.00
2019-03-21T05:33:32.170Z,48.00
2019-03-21T05:34:32.188Z,56.00
2019-03-21T05:35:32.202Z,60.00
2019-03-21T05:36:32.217Z,68.00
2019-03-21T05:37:32.238Z,76.00
2019-03-21T05:38:32.255Z,88.00
2019-03-21T05:39:32.286Z,96.00
2019-03-21T05:40:32.286Z,104.00
2019-03-21T05:41:32.311Z,112.00
2019-03-21T05:42:32.323Z,124.00
2019-03-21T05:43:32.341Z,132.00
2019-03-21T05:44:32.607Z,144.00
2019-03-21T05:45:32.381Z,156.00
2019-03-21T05:46:32.392Z,172.00
2019-03-21T05:47:32.408Z,192.00
2019-03-21T05:48:32.428Z,200.00
2019-03-21T05:49:32.446Z,216.00
2019-03-21T05:50:32.465Z,232.00
2019-03-21T05:51:32.495Z,256.00
2019-03-21T05:52:32.504Z,280.00
2019-03-21T05:53:32.524Z,304.00
2019-03-21T05:54:32.534Z,332.00
2019-03-21T05:55:32.548Z,356.00
2019-03-21T05:56:32.571Z,384.00
2019-03-21T05:57:32.596Z,396.00
2019-03-21T05:58:32.609Z,404.00
2019-03-21T05:59:32.620Z,424.00
2019-03-21T06:00:32.635Z,460.00
2019-03-21T06:01:32.655Z,504.00
2019-03-21T06:02:32.679Z,552.00
2019-03-21T06:03:32.689Z,608.00
2019-03-21T06:04:32.707Z,644.00
2019-03-21T06:05:32.728Z,668.00
2019-03-21T06:06:32.741Z,692.00
2019-03-21T06:07:32.758Z,708.00
2019-03-21T06:08:32.777Z,720.00
2019-03-21T06:09:32.795Z,736.00
2019-03-21T06:10:32.811Z,764.00
2019-03-21T06:11:32.828Z,796.00
2019-03-21T06:12:32.849Z,828.00
2019-03-21T06:13:32.865Z,864.00
2019-03-21T06:14:32.879Z,896.00
2019-03-21T06:15:32.898Z,936.00
2019-03-21T06:16:37.571Z,996.00
2019-03-21T06:17:32.931Z,1076.00
2019-03-21T06:18:32.948Z,1144.00
2019-03-21T06:19:32.970Z,1204.00
2019-03-21T06:20:32.983Z,1284.00
2019-03-21T06:21:33.002Z,1352.00
2019-03-21T06:22:33.018Z,1392.00
2019-03-21T06:23:33.034Z,1428.00
2019-03-21T06:24:33.054Z,1428.00
2019-03-21T06:25:33.078Z,1428.00
2019-03-21T06:26:33.092Z,1432.00
2019-03-21T06:27:33.104Z,1476.00
2019-03-21T06:28:33.124Z,1524.00
2019-03-21T06:29:33.141Z,1548.00
2019-03-21T06:30:33.161Z,1560.00
2019-03-21T06:31:33.176Z,1540.00
2019-03-21T06:32:33.191Z,1548.00
2019-03-21T06:33:33.210Z,1592.00
2019-03-21T06:34:33.225Z,1648.00
2019-03-21T06:35:33.243Z,1712.00
2019-03-21T06:36:33.260Z,1756.00
2019-03-21T06:37:33.285Z,1768.00
2019-03-21T06:38:33.295Z,1768.00
2019-03-21T06:39:33.316Z,1780.00
2019-03-21T06:40:33.339Z,1832.00
2019-03-21T06:41:33.350Z,1908.00
2019-03-21T06:42:33.365Z,1988.00
2019-03-21T06:43:33.385Z,2072.00
2019-03-21T06:44:33.402Z,2232.00
2019-03-21T06:45:33.417Z,2408.00
2019-03-21T06:46:33.437Z,2552.00
2019-03-21T06:47:33.452Z,2552.00
2019-03-21T06:48:33.472Z,2636.00
2019-03-21T06:49:33.488Z,2684.00
2019-03-21T06:50:33.511Z,2688.00
2019-03-21T06:51:33.523Z,2740.00
2019-03-21T06:52:33.541Z,2808.00
2019-03-21T06:53:33.558Z,2872.00
2019-03-21T06:54:33.580Z,2956.00
2019-03-21T06:55:33.595Z,2964.00
2019-03-21T06:56:33.611Z,2960.00
2019-03-21T06:57:33.629Z,2924.00
2019-03-21T06:58:33.650Z,2916.00
2019-03-21T06:59:33.665Z,2748.00
2019-03-21T07:00:33.682Z,2760.00
2019-03-21T07:01:33.699Z,2820.00
2019-03-21T07:02:33.719Z,2724.00
2019-03-21T07:03:33.735Z,2748.00
2019-03-21T07:04:33.752Z,2596.00
2019-03-21T07:05:33.776Z,2688.00
2019-03-21T07:06:33.793Z,2780.00
2019-03-21T07:07:33.807Z,2788.00
2019-03-21T07:08:33.831Z,2712.00
2019-03-21T07:09:33.844Z,2704.00
2019-03-21T07:10:33.862Z,2468.00
2019-03-21T07:11:33.878Z,2628.00
2019-03-21T07:12:33.901Z,2724.00
2019-03-21T07:13:33.915Z,2752.00
2019-03-21T07:14:33.935Z,2788.00
2019-03-21T07:15:33.947Z,2792.00
2019-03-21T07:16:34.117Z,2808.00
2019-03-21T07:17:33.985Z,2820.00
2019-03-21T07:18:34.085Z,2824.00
2019-03-21T07:19:34.020Z,2796.00
2019-03-21T07:20:34.038Z,2748.00
2019-03-21T07:21:34.056Z,2680.00
2019-03-21T07:22:34.082Z,2624.00
2019-03-21T07:23:34.297Z,2612.00
2019-03-21T07:24:34.108Z,2596.00
2019-03-21T07:25:34.134Z,2548.00
2019-03-21T07:26:34.146Z,2528.00
2019-03-21T07:27:34.159Z,2596.00
2019-03-21T07:28:34.178Z,2656.00
2019-03-21T07:29:34.197Z,2672.00
2019-03-21T07:30:34.217Z,2688.00
2019-03-21T07:31:34.231Z,2724.00
2019-03-21T07:32:34.252Z,2824.00
2019-03-21T07:33:34.267Z,2904.00
2019-03-21T07:34:34.289Z,2960.00
2019-03-21T07:35:34.309Z,2996.00
2019-03-21T07:36:34.475Z,3084.00
2019-03-21T07:37:34.341Z,3172.00
2019-03-21T07:38:34.360Z,3228.00
2019-03-21T07:39:34.378Z,3304.00
2019-03-21T07:40:34.395Z,3312.00
2019-03-21T07:41:34.437Z,3288.00
2019-03-21T07:42:34.431Z,3284.00
2019-03-21T07:43:34.446Z,3300.00
2019-03-21T07:44:34.467Z,3284.00
2019-03-21T07:45:34.490Z,3200.00
2019-03-21T07:46:34.523Z,3220.00
2019-03-21T07:47:34.568Z,3220.00
2019-03-21T07:48:34.539Z,3220.00
2019-03-21T07:49:34.568Z,3216.00
2019-03-21T07:50:34.573Z,3284.00
2019-03-21T07:51:34.600Z,3400.00
2019-03-21T07:52:34.620Z,3424.00
2019-03-21T07:53:34.626Z,3532.00
2019-03-21T07:54:34.645Z,3572.00
2019-03-21T07:55:34.671Z,3588.00
2019-03-21T07:56:34.682Z,3552.00
2019-03-21T07:57:34.723Z,3508.00
2019-03-21T07:58:34.717Z,3536.00
2019-03-21T07:59:34.736Z,3560.00
2019-03-21T08:00:34.760Z,3596.00
2019-03-21T08:01:34.773Z,3644.00
2019-03-21T08:02:34.788Z,3656.00
2019-03-21T08:03:34.811Z,3672.00
2019-03-21T08:04:34.828Z,3712.00
2019-03-21T08:05:40.170Z,3772.00
2019-03-21T08:06:34.866Z,3780.00
2019-03-21T08:07:34.880Z,3780.00
2019-03-21T08:08:34.901Z,3748.00
2019-03-21T08:09:34.949Z,3848.00
2019-03-21T08:10:34.935Z,3840.00
2019-03-21T08:11:34.951Z,3816.00
2019-03-21T08:12:34.969Z,3848.00
2019-03-21T08:13:34.988Z,3864.00
2019-03-21T08:14:35.011Z,3888.00
2019-03-21T08:15:37.663Z,3924.00
2019-03-21T08:16:35.042Z,3896.00
2019-03-21T08:17:35.060Z,3860.00
2019-03-21T08:18:35.113Z,3840.00
2019-03-21T08:19:35.103Z,3788.00
2019-03-21T08:20:35.117Z,3792.00
2019-03-21T08:21:35.233Z,3772.00
2019-03-21T08:22:35.152Z,3788.00
2019-03-21T08:23:35.170Z,3792.00
2019-03-21T08:24:35.196Z,3776.00
2019-03-21T08:25:35.210Z,3764.00
2019-03-21T08:26:35.225Z,3800.00
2019-03-21T08:27:35.244Z,3832.00
2019-03-21T08:28:35.262Z,3896.00
2019-03-21T08:29:35.290Z,4068.00
2019-03-21T08:30:35.299Z,3952.00
2019-03-21T08:31:35.319Z,4020.00
2019-03-21T08:32:35.338Z,4036.00
2019-03-21T08:33:35.356Z,4092.00
2019-03-21T08:34:35.373Z,4068.00
2019-03-21T08:35:35.395Z,3904.00
2019-03-21T08:36:35.414Z,4200.00
2019-03-21T08:37:35.428Z,4132.00
2019-03-21T08:38:35.451Z,4252.00
2019-03-21T08:39:35.465Z,4072.00
2019-03-21T08:40:35.484Z,4096.00
2019-03-21T08:41:35.504Z,4084.00
2019-03-21T08:42:35.522Z,4252.00
2019-03-21T08:43:35.542Z,4440.00
2019-03-21T08:44:35.560Z,4556.00
2019-03-21T08:45:35.585Z,4668.00
2019-03-21T08:46:35.597Z,4424.00
2019-03-21T08:47:37.040Z,4552.00
2019-03-21T08:48:36.004Z,5004.00
2019-03-21T08:49:35.654Z,5112.00
2019-03-21T08:50:35.711Z,5220.00
2019-03-21T08:51:35.695Z,5332.00
2019-03-21T08:52:35.711Z,5500.00
2019-03-21T08:53:35.734Z,5476.00
2019-03-21T08:54:35.952Z,5532.00
2019-03-21T08:55:36.265Z,5588.00
2019-03-21T08:56:35.784Z,5640.00
2019-03-21T08:57:35.804Z,5672.00
2019-03-21T08:58:35.930Z,5688.00
2019-03-21T08:59:35.840Z,5700.00
2019-03-21T09:00:35.865Z,5740.00
2019-03-21T09:01:35.878Z,5764.00
2019-03-21T09:02:35.908Z,5772.00
2019-03-21T09:03:35.920Z,5660.00
2019-03-21T09:04:35.936Z,4988.00
2019-03-21T09:05:36.057Z,5032.00
2019-03-21T09:06:35.975Z,5052.00
2019-03-21T09:07:36.001Z,5088.00
2019-03-21T09:08:36.016Z,5100.00
2019-03-21T09:09:36.031Z,5116.00
2019-03-21T09:10:36.060Z,5324.00
2019-03-21T09:11:36.072Z,5204.00
2019-03-21T09:12:36.091Z,5192.00
2019-03-21T09:13:36.108Z,5184.00
2019-03-21T09:14:36.134Z,5192.00
2019-03-21T09:15:36.150Z,5212.00
2019-03-21T09:16:36.166Z,5160.00
2019-03-21T09:17:36.193Z,5220.00
2019-03-21T09:18:36.211Z,5236.00
2019-03-21T09:19:36.227Z,5244.00
2019-03-21T09:20:36.403Z,5272.00
2019-03-21T09:21:36.263Z,5244.00
2019-03-21T09:22:36.285Z,5244.00
2019-03-21T09:23:36.314Z,5276.00
2019-03-21T09:24:36.321Z,5308.00
2019-03-21T09:25:36.951Z,5308.00
2019-03-21T09:26:36.363Z,5332.00
2019-03-21T09:27:36.381Z,5344.00
2019-03-21T09:28:36.401Z,5352.00
2019-03-21T09:29:36.425Z,5324.00
2019-03-21T09:30:36.449Z,6044.00
2019-03-21T09:31:36.461Z,6056.00
2019-03-21T09:32:36.483Z,6068.00
2019-03-21T09:33:36.499Z,6244.00
2019-03-21T09:34:36.523Z,6052.00
2019-03-21T09:35:36.541Z,6212.00
2019-03-21T09:36:36.559Z,6100.00
2019-03-21T09:37:36.579Z,6004.00
2019-03-21T09:38:37.048Z,5964.00
2019-03-21T09:39:36.617Z,5916.00
2019-03-21T09:40:36.641Z,6008.00
2019-03-21T09:41:36.660Z,5904.00
2019-03-21T09:42:36.679Z,5892.00
2019-03-21T09:43:36.708Z,5912.00
2019-03-21T09:44:36.719Z,5884.00
2019-03-21T09:45:36.741Z,5912.00
2019-03-21T09:46:36.757Z,5872.00
2019-03-21T09:47:36.776Z,5852.00
2019-03-21T09:48:36.797Z,5880.00
2019-03-21T09:49:36.816Z,5824.00
2019-03-21T09:50:36.835Z,5796.00
2019-03-21T09:51:36.860Z,5788.00
2019-03-21T09:52:36.883Z,5784.00
2019-03-21T09:53:36.898Z,5684.00
2019-03-21T09:54:36.923Z,5732.00
2019-03-21T09:55:36.939Z,5584.00
2019-03-21T09:56:36.961Z,5284.00
2019-03-21T09:57:36.987Z,5364.00
2019-03-21T09:58:36.998Z,5324.00
2019-03-21T09:59:37.026Z,5552.00
2019-03-21T10:00:37.038Z,5380.00
2019-03-21T10:01:37.056Z,5320.00
2019-03-21T10:02:37.080Z,5324.00
2019-03-21T10:03:37.097Z,5356.00
2019-03-21T10:04:37.119Z,5240.00
2019-03-21T10:05:37.198Z,5216.00
2019-03-21T10:06:37.158Z,5244.00
2019-03-21T10:07:37.177Z,5388.00
2019-03-21T10:08:37.198Z,5132.00
2019-03-21T10:09:37.219Z,4872.00
2019-03-21T10:10:37.240Z,5172.00
2019-03-21T10:11:37.257Z,5124.00
2019-03-21T10:12:37.286Z,5164.00
2019-03-21T10:13:37.319Z,5312.00
2019-03-21T10:14:37.425Z,5124.00
2019-03-21T10:15:37.338Z,5444.00
2019-03-21T10:16:37.359Z,5200.00
2019-03-21T10:17:37.384Z,5268.00
2019-03-21T10:18:37.401Z,5320.00
2019-03-21T10:19:37.423Z,5128.00
2019-03-21T10:20:37.442Z,5128.00
2019-03-21T10:21:43.295Z,5356.00
2019-03-21T10:22:37.478Z,5292.00
2019-03-21T10:23:37.497Z,5180.00
2019-03-21T10:24:37.533Z,5148.00
2019-03-21T10:25:37.543Z,4852.00
2019-03-21T10:26:37.559Z,5500.00
2019-03-21T10:27:37.575Z,5296.00
2019-03-21T10:28:37.596Z,5344.00
2019-03-21T10:29:37.618Z,5428.00
2019-03-21T10:30:37.642Z,5344.00
2019-03-21T10:31:37.657Z,5212.00
2019-03-21T10:32:37.678Z,5316.00
2019-03-21T10:33:37.699Z,5412.00
2019-03-21T10:34:37.717Z,5528.00
2019-03-21T10:35:37.738Z,5468.00
2019-03-21T10:36:37.766Z,5516.00
2019-03-21T10:37:37.779Z,5372.00
2019-03-21T10:38:37.800Z,5380.00
2019-03-21T10:39:37.819Z,5460.00
2019-03-21T10:40:37.860Z,5176.00
2019-03-21T10:41:37.866Z,5472.00
2019-03-21T10:42:37.881Z,5452.00
2019-03-21T10:43:37.910Z,5488.00
2019-03-21T10:44:37.920Z,4892.00
2019-03-21T10:45:38.043Z,5508.00
2019-03-21T10:46:37.963Z,5140.00
2019-03-21T10:47:37.983Z,5520.00
2019-03-21T10:48:38.604Z,5720.00
2019-03-21T10:49:38.019Z,5700.00
2019-03-21T10:50:38.040Z,5668.00
2019-03-21T10:51:38.065Z,5704.00
2019-03-21T10:52:38.086Z,5748.00
2019-03-21T10:53:38.102Z,5784.00
2019-03-21T10:54:38.127Z,5652.00
2019-03-21T10:55:38.141Z,5760.00
2019-03-21T10:56:38.162Z,5736.00
2019-03-21T10:57:38.183Z,5584.00
2019-03-21T10:58:38.203Z,5724.00
2019-03-21T10:59:38.223Z,5772.00
2019-03-21T11:00:38.244Z,6160.00
2019-03-21T11:01:38.263Z,5620.00
2019-03-21T11:02:38.286Z,5700.00
2019-03-21T11:03:38.305Z,5688.00
2019-03-21T11:04:38.328Z,5492.00
2019-03-21T11:05:38.351Z,5564.00
2019-03-21T11:06:38.389Z,5516.00
2019-03-21T11:07:38.387Z,5588.00
2019-03-21T11:08:38.409Z,5552.00
2019-03-21T11:09:38.678Z,5528.00
2019-03-21T11:10:38.449Z,5472.00
2019-03-21T11:11:38.474Z,5432.00
2019-03-21T11:12:38.487Z,5456.00
2019-03-21T11:13:38.540Z,5348.00
2019-03-21T11:14:38.537Z,5328.00
2019-03-21T11:15:38.554Z,4436.00
2019-03-21T11:16:38.574Z,5032.00
2019-03-21T11:17:38.600Z,5320.00
2019-03-21T11:18:38.611Z,5260.00
2019-03-21T11:19:38.635Z,5252.00
2019-03-21T11:20:38.653Z,5228.00
2019-03-21T11:21:38.674Z,5284.00
2019-03-21T11:22:38.698Z,5132.00
2019-03-21T11:23:38.717Z,5004.00
2019-03-21T11:24:39.639Z,5080.00
2019-03-21T11:25:38.763Z,5208.00
2019-03-21T11:26:38.782Z,5172.00
2019-03-21T11:27:38.799Z,5172.00
2019-03-21T11:28:38.818Z,5116.00
2019-03-21T11:29:38.847Z,5152.00
2019-03-21T11:30:38.860Z,5120.00
2019-03-21T11:31:38.885Z,5108.00
2019-03-21T11:32:38.904Z,5160.00
2019-03-21T11:33:38.921Z,5140.00
2019-03-21T11:34:38.942Z,5124.00
2019-03-21T11:35:38.964Z,5088.00
2019-03-21T11:36:39.043Z,5092.00
2019-03-21T11:37:39.013Z,5056.00
2019-03-21T11:38:39.027Z,5004.00
2019-03-21T11:39:39.053Z,4896.00
2019-03-21T11:40:39.069Z,4976.00
2019-03-21T11:41:39.088Z,4920.00
2019-03-21T11:42:39.119Z,5016.00
2019-03-21T11:43:39.140Z,4908.00
2019-03-21T11:44:39.156Z,4780.00
2019-03-21T11:45:39.169Z,4740.00
2019-03-21T11:46:39.203Z,4800.00
2019-03-21T11:47:42.001Z,4860.00
2019-03-21T11:48:39.231Z,4840.00
2019-03-21T11:49:39.255Z,4892.00
2019-03-21T11:50:39.296Z,4872.00
2019-03-21T11:51:39.302Z,4904.00
2019-03-21T11:52:41.097Z,4812.00
2019-03-21T11:53:39.333Z,4896.00
2019-03-21T11:54:39.383Z,4804.00
2019-03-21T11:55:39.382Z,5036.00
2019-03-21T11:56:39.400Z,4960.00
2019-03-21T11:57:39.419Z,4956.00
2019-03-21T11:58:39.442Z,4988.00
2019-03-21T11:59:51.174Z,4968.00
2019-03-21T12:00:44.013Z,4696.00
2019-03-21T12:01:39.501Z,4736.00
2019-03-21T12:02:39.519Z,4788.00
2019-03-21T12:03:39.543Z,4708.00
2019-03-21T12:04:39.562Z,4680.00
2019-03-21T12:05:39.583Z,4760.00
2019-03-21T12:06:39.603Z,4804.00
2019-03-21T12:07:39.623Z,4836.00
2019-03-21T12:08:39.646Z,4776.00
2019-03-21T12:09:40.013Z,4828.00
2019-03-21T12:10:39.683Z,4832.00
2019-03-21T12:11:39.703Z,4800.00
2019-03-21T12:12:39.732Z,4808.00
2019-03-21T12:13:39.744Z,4584.00
2019-03-21T12:14:39.763Z,4664.00
2019-03-21T12:15:39.786Z,4848.00
2019-03-21T12:16:39.814Z,4884.00
2019-03-21T12:17:39.829Z,4920.00
2019-03-21T12:18:39.846Z,4772.00
2019-03-21T12:19:39.866Z,4788.00
2019-03-21T12:20:39.892Z,4736.00
2019-03-21T12:21:39.910Z,4688.00
2019-03-21T12:22:39.939Z,4704.00
2019-03-21T12:23:39.948Z,4772.00
2019-03-21T12:24:39.971Z,4788.00
2019-03-21T12:25:39.990Z,4788.00
2019-03-21T12:26:40.010Z,4764.00
2019-03-21T12:27:40.032Z,4768.00
2019-03-21T12:28:40.060Z,4776.00
2019-03-21T12:29:40.078Z,4760.00
2019-03-21T12:30:40.099Z,4792.00
2019-03-21T12:31:40.115Z,4768.00
2019-03-21T12:32:40.136Z,4772.00
2019-03-21T12:33:40.156Z,4808.00
2019-03-21T12:34:40.182Z,4832.00
2019-03-21T12:35:40.205Z,4724.00
2019-03-21T12:36:40.219Z,4744.00
2019-03-21T12:37:40.240Z,4760.00